< Cyclone 196915 1969 Season Cyclone 196917 >
Cyclone 196916 (UNNAMED)
General InformationTrack Information on Google Maps || ResourceGoogle EarthGE AnimationAtom FeedGeoJSON
Detalied Best Track (Time Zone = UTC)
Year Month Day Hour Lat. Long. Pressure (hPa) Wind (kt) Class Image Chart
1969 4 11 11 -10.5 164.9 1004 0 0 -- --
1969 4 11 14 -10.8 164.7 1004 0 0 -- --
1969 4 11 17 -11.1 164.5 1003 0 0 -- --
1969 4 11 20 -11.4 164.2 1003 0 0 -- --
1969 4 11 23 -11.7 164.0 1003 0 0 -- --
1969 4 12 02 -11.9 163.9 1003 0 0 -- --
1969 4 12 05 -12.1 163.7 1003 0 0 -- --
1969 4 12 08 -12.2 163.6 1003 0 0 -- --
1969 4 12 11 -12.4 163.5 1004 0 0 -- --
1969 4 12 14 -12.6 163.4 1003 0 0 -- --
1969 4 12 17 -12.9 163.2 1002 0 0 -- --
1969 4 12 20 -13.1 163.1 1002 0 0 -- --
1969 4 12 23 -13.3 163.0 1003 0 0 -- --
1969 4 13 02 -13.7 162.7 1002 0 0 -- --
1969 4 13 05 -14.1 162.5 1001 0 0 -- --
1969 4 13 08 -14.4 162.3 1001 0 0 -- --
1969 4 13 11 -14.8 162.1 1002 0 0 -- --
1969 4 13 14 -15.2 161.9 1001 0 0 -- --
1969 4 13 17 -15.6 161.7 1000 0 0 -- --
1969 4 13 20 -16.1 161.3 1000 0 0 -- --
1969 4 13 23 -16.6 161.0 1001 0 0 -- --
1969 4 14 02 -17.1 160.5 1001 0 0 -- --
1969 4 14 05 -17.5 160.1 1001 0 0 -- --
1969 4 14 08 -18.1 159.7 1000 0 0 -- --
1969 4 14 11 -18.7 159.2 1000 0 0 -- --
1969 4 14 14 -19.4 158.8 1000 0 0 -- --
1969 4 14 17 -20.2 158.4 1001 0 0 -- --
1969 4 14 20 -21.5 157.7 1001 0 0 -- --
1969 4 14 23 -22.9 157.1 1001 0 0 -- --
1969 4 15 02 -23.4 156.9 1001 0 0 -- --
1969 4 15 05 -23.9 156.8 1001 0 0 -- --
1969 4 15 08 -24.5 156.6 1001 0 0 -- --
1969 4 15 11 -25.2 156.4 1002 0 0 -- --
1969 4 15 14 -26.2 156.5 1002 0 0 -- --
1969 4 15 17 -27.2 156.5 1002 0 0 -- --
1969 4 15 20 -27.9 156.6 1001 0 0 -- --
1969 4 15 23 -28.5 156.8 1001 0 0 -- --
1969 4 16 02 -29.2 157.4 1000 0 0 -- --
1969 4 16 05 -29.9 158.0 998 0 0 -- --
1969 4 16 08 -30.4 158.7 997 0 0 -- --
1969 4 16 11 -30.9 159.3 996 0 0 -- --
1969 4 16 14 -31.2 159.6 996 0 0 -- --
1969 4 16 17 -31.4 160.0 996 0 0 -- --
< Cyclone 196915 1969 Season Cyclone 196917 >

Help